sensor_id;sensor_type;location;lat;lon;timestamp;P1;P2;P0
64138;PMS5003;50435;43.700;-79.318;2022-10-31T00:00:43;23;23;
64138;PMS5003;50435;43.700;-79.318;2022-10-31T00:03:11;26;24;
64138;PMS5003;50435;43.700;-79.318;2022-10-31T00:05:40;29;26;
64138;PMS5003;50435;43.700;-79.318;2022-10-31T00:08:09;24;23;
64138;PMS5003;50435;43.700;-79.318;2022-10-31T00:10:37;33;30;
64138;PMS5003;50435;43.700;-79.318;2022-10-31T00:13:05;32;29;
64138;PMS5003;50435;43.700;-79.318;2022-10-31T00:15:32;28;27;
64138;PMS5003;50435;43.700;-79.318;2022-10-31T00:18:00;30;28;
64138;PMS5003;50435;43.700;-79.318;2022-10-31T00:20:28;31;29;
64138;PMS5003;50435;43.700;-79.318;2022-10-31T00:22:57;27;27;
64138;PMS5003;50435;43.700;-79.318;2022-10-31T00:25:25;32;30;
64138;PMS5003;50435;43.700;-79.318;2022-10-31T00:27:54;28;28;
64138;PMS5003;50435;43.700;-79.318;2022-10-31T00:30:21;33;28;
64138;PMS5003;50435;43.700;-79.318;2022-10-31T00:32:48;28;25;
64138;PMS5003;50435;43.700;-79.318;2022-10-31T00:35:17;26;26;
64138;PMS5003;50435;43.700;-79.318;2022-10-31T00:37:44;26;25;
64138;PMS5003;50435;43.700;-79.318;2022-10-31T00:40:11;28;28;
64138;PMS5003;50435;43.700;-79.318;2022-10-31T00:42:39;31;29;
64138;PMS5003;50435;43.700;-79.318;2022-10-31T00:45:07;28;28;
64138;PMS5003;50435;43.700;-79.318;2022-10-31T00:47:36;33;32;
64138;PMS5003;50435;43.700;-79.318;2022-10-31T00:50:04;30;28;
64138;PMS5003;50435;43.700;-79.318;2022-10-31T00:52:32;30;29;
64138;PMS5003;50435;43.700;-79.318;2022-10-31T00:55:00;33;32;
64138;PMS5003;50435;43.700;-79.318;2022-10-31T00:57:28;30;30;
64138;PMS5003;50435;43.700;-79.318;2022-10-31T00:59:55;26;26;
64138;PMS5003;50435;43.700;-79.318;2022-10-31T01:02:22;27;27;
64138;PMS5003;50435;43.700;-79.318;2022-10-31T01:04:49;26;25;
64138;PMS5003;50435;43.700;-79.318;2022-10-31T01:07:18;35;31;
64138;PMS5003;50435;43.700;-79.318;2022-10-31T01:09:45;30;29;
64138;PMS5003;50435;43.700;-79.318;2022-10-31T01:12:13;34;33;
64138;PMS5003;50435;43.700;-79.318;2022-10-31T01:14:42;30;29;
64138;PMS5003;50435;43.700;-79.318;2022-10-31T01:17:10;28;27;
64138;PMS5003;50435;43.700;-79.318;2022-10-31T01:19:37;37;32;
64138;PMS5003;50435;43.700;-79.318;2022-10-31T01:22:04;34;29;
64138;PMS5003;50435;43.700;-79.318;2022-10-31T01:24:32;29;29;
64138;PMS5003;50435;43.700;-79.318;2022-10-31T01:27:00;33;32;
64138;PMS5003;50435;43.700;-79.318;2022-10-31T01:29:27;30;29;
64138;PMS5003;50435;43.700;-79.318;2022-10-31T01:31:55;35;32;
64138;PMS5003;50435;43.700;-79.318;2022-10-31T01:34:22;35;33;
64138;PMS5003;50435;43.700;-79.318;2022-10-31T01:36:49;33;32;
64138;PMS5003;50435;43.700;-79.318;2022-10-31T01:39:17;35;34;
64138;PMS5003;50435;43.700;-79.318;2022-10-31T01:41:45;36;32;
64138;PMS5003;50435;43.700;-79.318;2022-10-31T01:45:19;33;31;
64138;PMS5003;50435;43.700;-79.318;2022-10-31T01:47:47;32;32;
64138;PMS5003;50435;43.700;-79.318;2022-10-31T01:50:21;36;36;
64138;PMS5003;50435;43.700;-79.318;2022-10-31T01:52:55;39;32;
64138;PMS5003;50435;43.700;-79.318;2022-10-31T01:55:23;31;28;
64138;PMS5003;50435;43.700;-79.318;2022-10-31T01:57:55;29;28;
64138;PMS5003;50435;43.700;-79.318;2022-10-31T02:00:25;37;37;
64138;PMS5003;50435;43.700;-79.318;2022-10-31T02:02:53;31;30;
64138;PMS5003;50435;43.700;-79.318;2022-10-31T02:05:21;36;33;
64138;PMS5003;50435;43.700;-79.318;2022-10-31T02:07:53;37;36;
64138;PMS5003;50435;43.700;-79.318;2022-10-31T02:10:23;31;29;
64138;PMS5003;50435;43.700;-79.318;2022-10-31T02:12:51;34;31;
64138;PMS5003;50435;43.700;-79.318;2022-10-31T02:15:21;40;37;
64138;PMS5003;50435;43.700;-79.318;2022-10-31T02:17:49;35;32;
64138;PMS5003;50435;43.700;-79.318;2022-10-31T02:20:18;42;38;
64138;PMS5003;50435;43.700;-79.318;2022-10-31T02:22:53;36;33;
64138;PMS5003;50435;43.700;-79.318;2022-10-31T02:26:05;34;31;
64138;PMS5003;50435;43.700;-79.318;2022-10-31T02:28:54;35;35;
64138;PMS5003;50435;43.700;-79.318;2022-10-31T02:31:33;33;31;
64138;PMS5003;50435;43.700;-79.318;2022-10-31T02:34:09;35;33;
64138;PMS5003;50435;43.700;-79.318;2022-10-31T02:36:52;34;32;
64138;PMS5003;50435;43.700;-79.318;2022-10-31T02:39:25;35;33;
64138;PMS5003;50435;43.700;-79.318;2022-10-31T02:41:59;37;35;
64138;PMS5003;50435;43.700;-79.318;2022-10-31T02:44:33;36;34;
64138;PMS5003;50435;43.700;-79.318;2022-10-31T02:47:05;36;36;
64138;PMS5003;50435;43.700;-79.318;2022-10-31T02:49:37;35;31;
64138;PMS5003;50435;43.700;-79.318;2022-10-31T02:52:13;39;35;
64138;PMS5003;50435;43.700;-79.318;2022-10-31T02:54:44;37;33;
64138;PMS5003;50435;43.700;-79.318;2022-10-31T02:57:13;32;30;
64138;PMS5003;50435;43.700;-79.318;2022-10-31T02:59:46;37;35;
64138;PMS5003;50435;43.700;-79.318;2022-10-31T03:02:21;35;34;
64138;PMS5003;50435;43.700;-79.318;2022-10-31T03:05:18;38;33;
64138;PMS5003;50435;43.700;-79.318;2022-10-31T03:07:57;38;35;
64138;PMS5003;50435;43.700;-79.318;2022-10-31T03:10:33;36;33;
64138;PMS5003;50435;43.700;-79.318;2022-10-31T03:13:06;33;29;
64138;PMS5003;50435;43.700;-79.318;2022-10-31T03:15:40;31;30;
64138;PMS5003;50435;43.700;-79.318;2022-10-31T03:18:12;33;31;
64138;PMS5003;50435;43.700;-79.318;2022-10-31T03:20:47;28;28;
64138;PMS5003;50435;43.700;-79.318;2022-10-31T03:23:20;29;27;
64138;PMS5003;50435;43.700;-79.318;2022-10-31T03:25:50;34;31;
64138;PMS5003;50435;43.700;-79.318;2022-10-31T03:28:22;36;31;
64138;PMS5003;50435;43.700;-79.318;2022-10-31T03:30:54;34;31;
64138;PMS5003;50435;43.700;-79.318;2022-10-31T03:33:26;27;27;
64138;PMS5003;50435;43.700;-79.318;2022-10-31T03:35:57;33;30;
64138;PMS5003;50435;43.700;-79.318;2022-10-31T03:38:27;35;32;
64138;PMS5003;50435;43.700;-79.318;2022-10-31T03:40:56;33;30;
64138;PMS5003;50435;43.700;-79.318;2022-10-31T03:43:30;32;32;
64138;PMS5003;50435;43.700;-79.318;2022-10-31T03:46:03;34;34;
64138;PMS5003;50435;43.700;-79.318;2022-10-31T03:48:32;32;32;
64138;PMS5003;50435;43.700;-79.318;2022-10-31T03:51:00;36;34;
64138;PMS5003;50435;43.700;-79.318;2022-10-31T03:53:35;37;35;
64138;PMS5003;50435;43.700;-79.318;2022-10-31T03:56:07;35;29;
64138;PMS5003;50435;43.700;-79.318;2022-10-31T03:58:41;32;31;
64138;PMS5003;50435;43.700;-79.318;2022-10-31T04:01:15;34;32;
64138;PMS5003;50435;43.700;-79.318;2022-10-31T04:03:45;43;34;
64138;PMS5003;50435;43.700;-79.318;2022-10-31T04:06:14;37;35;
64138;PMS5003;50435;43.700;-79.318;2022-10-31T04:08:47;34;33;
64138;PMS5003;50435;43.700;-79.318;2022-10-31T04:11:19;32;28;
64138;PMS5003;50435;43.700;-79.318;2022-10-31T04:13:52;35;31;
64138;PMS5003;50435;43.700;-79.318;2022-10-31T04:16:22;34;31;
64138;PMS5003;50435;43.700;-79.318;2022-10-31T04:18:51;30;30;
64138;PMS5003;50435;43.700;-79.318;2022-10-31T04:21:18;37;33;
64138;PMS5003;50435;43.700;-79.318;2022-10-31T04:23:46;34;32;
64138;PMS5003;50435;43.700;-79.318;2022-10-31T04:26:13;34;29;
64138;PMS5003;50435;43.700;-79.318;2022-10-31T04:28:41;38;36;
64138;PMS5003;50435;43.700;-79.318;2022-10-31T04:31:09;35;31;
64138;PMS5003;50435;43.700;-79.318;2022-10-31T04:33:38;33;32;
64138;PMS5003;50435;43.700;-79.318;2022-10-31T04:36:05;32;32;
64138;PMS5003;50435;43.700;-79.318;2022-10-31T04:38:33;31;30;
64138;PMS5003;50435;43.700;-79.318;2022-10-31T04:41:01;37;36;
64138;PMS5003;50435;43.700;-79.318;2022-10-31T04:43:29;35;34;
64138;PMS5003;50435;43.700;-79.318;2022-10-31T04:45:56;33;30;
64138;PMS5003;50435;43.700;-79.318;2022-10-31T04:48:24;29;27;
64138;PMS5003;50435;43.700;-79.318;2022-10-31T04:50:51;34;29;
64138;PMS5003;50435;43.700;-79.318;2022-10-31T04:53:19;35;33;
64138;PMS5003;50435;43.700;-79.318;2022-10-31T04:55:46;31;31;
64138;PMS5003;50435;43.700;-79.318;2022-10-31T04:58:14;37;37;
64138;PMS5003;50435;43.700;-79.318;2022-10-31T05:00:42;32;30;
64138;PMS5003;50435;43.700;-79.318;2022-10-31T05:03:09;31;30;
64138;PMS5003;50435;43.700;-79.318;2022-10-31T05:05:37;32;32;
64138;PMS5003;50435;43.700;-79.318;2022-10-31T05:08:04;33;32;
64138;PMS5003;50435;43.700;-79.318;2022-10-31T05:10:32;33;31;
64138;PMS5003;50435;43.700;-79.318;2022-10-31T05:12:59;38;35;
64138;PMS5003;50435;43.700;-79.318;2022-10-31T05:15:28;37;32;
64138;PMS5003;50435;43.700;-79.318;2022-10-31T05:17:56;34;30;
64138;PMS5003;50435;43.700;-79.318;2022-10-31T05:20:24;28;28;
64138;PMS5003;50435;43.700;-79.318;2022-10-31T05:22:55;37;33;
64138;PMS5003;50435;43.700;-79.318;2022-10-31T05:25:24;33;32;
64138;PMS5003;50435;43.700;-79.318;2022-10-31T05:27:54;29;26;
64138;PMS5003;50435;43.700;-79.318;2022-10-31T05:30:24;28;27;
64138;PMS5003;50435;43.700;-79.318;2022-10-31T05:32:53;34;31;
64138;PMS5003;50435;43.700;-79.318;2022-10-31T05:35:22;30;29;
64138;PMS5003;50435;43.700;-79.318;2022-10-31T05:37:51;31;31;
64138;PMS5003;50435;43.700;-79.318;2022-10-31T05:40:20;34;31;
64138;PMS5003;50435;43.700;-79.318;2022-10-31T05:42:50;34;32;
64138;PMS5003;50435;43.700;-79.318;2022-10-31T05:45:19;33;31;
64138;PMS5003;50435;43.700;-79.318;2022-10-31T05:47:51;33;30;
64138;PMS5003;50435;43.700;-79.318;2022-10-31T05:50:19;34;31;
64138;PMS5003;50435;43.700;-79.318;2022-10-31T05:52:46;34;34;
64138;PMS5003;50435;43.700;-79.318;2022-10-31T05:55:20;33;31;
64138;PMS5003;50435;43.700;-79.318;2022-10-31T05:57:47;30;26;
64138;PMS5003;50435;43.700;-79.318;2022-10-31T06:00:15;31;28;
64138;PMS5003;50435;43.700;-79.318;2022-10-31T06:02:43;33;32;
64138;PMS5003;50435;43.700;-79.318;2022-10-31T06:05:11;36;31;
64138;PMS5003;50435;43.700;-79.318;2022-10-31T06:07:39;37;33;
64138;PMS5003;50435;43.700;-79.318;2022-10-31T06:10:07;31;31;
64138;PMS5003;50435;43.700;-79.318;2022-10-31T06:12:36;29;28;
64138;PMS5003;50435;43.700;-79.318;2022-10-31T06:15:04;37;33;
64138;PMS5003;50435;43.700;-79.318;2022-10-31T06:17:34;34;34;
64138;PMS5003;50435;43.700;-79.318;2022-10-31T06:20:01;39;34;
64138;PMS5003;50435;43.700;-79.318;2022-10-31T06:22:29;37;32;
64138;PMS5003;50435;43.700;-79.318;2022-10-31T06:24:56;32;32;
64138;PMS5003;50435;43.700;-79.318;2022-10-31T06:27:24;33;29;
64138;PMS5003;50435;43.700;-79.318;2022-10-31T06:29:52;32;31;
64138;PMS5003;50435;43.700;-79.318;2022-10-31T06:32:21;33;32;
64138;PMS5003;50435;43.700;-79.318;2022-10-31T06:34:48;38;34;
64138;PMS5003;50435;43.700;-79.318;2022-10-31T06:37:16;31;29;
64138;PMS5003;50435;43.700;-79.318;2022-10-31T06:39:43;33;31;
64138;PMS5003;50435;43.700;-79.318;2022-10-31T06:42:10;35;30;
64138;PMS5003;50435;43.700;-79.318;2022-10-31T06:44:37;34;32;
64138;PMS5003;50435;43.700;-79.318;2022-10-31T06:47:05;36;30;
64138;PMS5003;50435;43.700;-79.318;2022-10-31T06:49:32;38;32;
64138;PMS5003;50435;43.700;-79.318;2022-10-31T06:51:59;32;30;
64138;PMS5003;50435;43.700;-79.318;2022-10-31T06:54:27;32;31;
64138;PMS5003;50435;43.700;-79.318;2022-10-31T06:56:54;38;30;
64138;PMS5003;50435;43.700;-79.318;2022-10-31T06:59:22;39;37;
64138;PMS5003;50435;43.700;-79.318;2022-10-31T07:01:49;35;34;
64138;PMS5003;50435;43.700;-79.318;2022-10-31T07:04:16;31;31;
64138;PMS5003;50435;43.700;-79.318;2022-10-31T07:06:44;36;35;
64138;PMS5003;50435;43.700;-79.318;2022-10-31T07:09:11;34;32;
64138;PMS5003;50435;43.700;-79.318;2022-10-31T07:11:38;34;30;
64138;PMS5003;50435;43.700;-79.318;2022-10-31T07:14:06;33;32;
64138;PMS5003;50435;43.700;-79.318;2022-10-31T07:16:34;29;29;
64138;PMS5003;50435;43.700;-79.318;2022-10-31T07:19:02;33;28;
64138;PMS5003;50435;43.700;-79.318;2022-10-31T07:21:29;37;32;
64138;PMS5003;50435;43.700;-79.318;2022-10-31T07:23:57;34;34;
64138;PMS5003;50435;43.700;-79.318;2022-10-31T07:26:24;33;33;
64138;PMS5003;50435;43.700;-79.318;2022-10-31T07:28:52;34;30;
64138;PMS5003;50435;43.700;-79.318;2022-10-31T07:31:19;29;29;
64138;PMS5003;50435;43.700;-79.318;2022-10-31T07:33:47;33;32;
64138;PMS5003;50435;43.700;-79.318;2022-10-31T07:36:14;28;26;
64138;PMS5003;50435;43.700;-79.318;2022-10-31T07:38:42;30;30;
64138;PMS5003;50435;43.700;-79.318;2022-10-31T07:41:09;36;32;
64138;PMS5003;50435;43.700;-79.318;2022-10-31T07:43:37;30;29;
64138;PMS5003;50435;43.700;-79.318;2022-10-31T07:46:05;34;34;
64138;PMS5003;50435;43.700;-79.318;2022-10-31T07:48:32;36;36;
64138;PMS5003;50435;43.700;-79.318;2022-10-31T07:51:00;36;32;
64138;PMS5003;50435;43.700;-79.318;2022-10-31T07:53:27;39;36;
64138;PMS5003;50435;43.700;-79.318;2022-10-31T07:55:55;33;29;
64138;PMS5003;50435;43.700;-79.318;2022-10-31T07:58:22;32;31;
64138;PMS5003;50435;43.700;-79.318;2022-10-31T08:00:49;34;33;
64138;PMS5003;50435;43.700;-79.318;2022-10-31T08:03:18;39;35;
64138;PMS5003;50435;43.700;-79.318;2022-10-31T08:05:46;30;28;
64138;PMS5003;50435;43.700;-79.318;2022-10-31T08:08:14;32;32;
64138;PMS5003;50435;43.700;-79.318;2022-10-31T08:10:42;34;30;
64138;PMS5003;50435;43.700;-79.318;2022-10-31T08:13:10;34;34;
64138;PMS5003;50435;43.700;-79.318;2022-10-31T08:15:40;36;33;
64138;PMS5003;50435;43.700;-79.318;2022-10-31T08:18:10;28;28;
64138;PMS5003;50435;43.700;-79.318;2022-10-31T08:20:39;32;30;
64138;PMS5003;50435;43.700;-79.318;2022-10-31T08:23:08;31;31;
64138;PMS5003;50435;43.700;-79.318;2022-10-31T08:25:37;32;32;
64138;PMS5003;50435;43.700;-79.318;2022-10-31T08:28:06;34;34;
64138;PMS5003;50435;43.700;-79.318;2022-10-31T08:30:35;32;31;
64138;PMS5003;50435;43.700;-79.318;2022-10-31T08:33:04;28;28;
64138;PMS5003;50435;43.700;-79.318;2022-10-31T08:35:35;30;27;
64138;PMS5003;50435;43.700;-79.318;2022-10-31T08:38:03;36;34;
64138;PMS5003;50435;43.700;-79.318;2022-10-31T08:40:31;30;30;
64138;PMS5003;50435;43.700;-79.318;2022-10-31T08:43:00;38;33;
64138;PMS5003;50435;43.700;-79.318;2022-10-31T08:45:29;28;25;
64138;PMS5003;50435;43.700;-79.318;2022-10-31T08:47:59;32;30;
64138;PMS5003;50435;43.700;-79.318;2022-10-31T08:50:27;36;32;
64138;PMS5003;50435;43.700;-79.318;2022-10-31T08:52:59;30;28;
64138;PMS5003;50435;43.700;-79.318;2022-10-31T08:55:28;30;29;
64138;PMS5003;50435;43.700;-79.318;2022-10-31T08:57:56;32;29;
64138;PMS5003;50435;43.700;-79.318;2022-10-31T09:00:24;28;27;
64138;PMS5003;50435;43.700;-79.318;2022-10-31T09:02:55;29;28;
64138;PMS5003;50435;43.700;-79.318;2022-10-31T09:05:24;38;33;
64138;PMS5003;50435;43.700;-79.318;2022-10-31T09:07:54;35;31;
64138;PMS5003;50435;43.700;-79.318;2022-10-31T09:10:22;35;34;
64138;PMS5003;50435;43.700;-79.318;2022-10-31T09:12:54;33;28;
64138;PMS5003;50435;43.700;-79.318;2022-10-31T09:15:22;34;30;
64138;PMS5003;50435;43.700;-79.318;2022-10-31T09:17:49;32;32;
64138;PMS5003;50435;43.700;-79.318;2022-10-31T09:20:16;38;33;
64138;PMS5003;50435;43.700;-79.318;2022-10-31T09:22:44;38;31;
64138;PMS5003;50435;43.700;-79.318;2022-10-31T09:25:12;36;31;
64138;PMS5003;50435;43.700;-79.318;2022-10-31T09:27:40;35;33;
64138;PMS5003;50435;43.700;-79.318;2022-10-31T09:30:08;35;30;
64138;PMS5003;50435;43.700;-79.318;2022-10-31T09:32:35;34;31;
64138;PMS5003;50435;43.700;-79.318;2022-10-31T09:35:03;33;30;
64138;PMS5003;50435;43.700;-79.318;2022-10-31T09:37:32;34;32;
64138;PMS5003;50435;43.700;-79.318;2022-10-31T09:39:59;38;38;
64138;PMS5003;50435;43.700;-79.318;2022-10-31T09:42:31;30;30;
64138;PMS5003;50435;43.700;-79.318;2022-10-31T09:45:12;35;33;
64138;PMS5003;50435;43.700;-79.318;2022-10-31T09:47:48;40;36;
64138;PMS5003;50435;43.700;-79.318;2022-10-31T09:50:29;33;32;
64138;PMS5003;50435;43.700;-79.318;2022-10-31T09:53:08;37;36;
64138;PMS5003;50435;43.700;-79.318;2022-10-31T09:55:40;38;33;
64138;PMS5003;50435;43.700;-79.318;2022-10-31T09:58:12;34;33;
64138;PMS5003;50435;43.700;-79.318;2022-10-31T10:00:43;39;35;
64138;PMS5003;50435;43.700;-79.318;2022-10-31T10:03:15;36;35;
64138;PMS5003;50435;43.700;-79.318;2022-10-31T10:05:54;39;36;
64138;PMS5003;50435;43.700;-79.318;2022-10-31T10:08:30;27;27;
64138;PMS5003;50435;43.700;-79.318;2022-10-31T10:11:01;35;32;
64138;PMS5003;50435;43.700;-79.318;2022-10-31T10:13:42;35;34;
64138;PMS5003;50435;43.700;-79.318;2022-10-31T10:16:22;35;34;
64138;PMS5003;50435;43.700;-79.318;2022-10-31T10:19:05;30;29;
64138;PMS5003;50435;43.700;-79.318;2022-10-31T10:21:46;33;31;
64138;PMS5003;50435;43.700;-79.318;2022-10-31T10:24:22;29;28;
64138;PMS5003;50435;43.700;-79.318;2022-10-31T10:26:59;38;32;
64138;PMS5003;50435;43.700;-79.318;2022-10-31T10:29:39;34;30;
64138;PMS5003;50435;43.700;-79.318;2022-10-31T10:32:13;37;34;
64138;PMS5003;50435;43.700;-79.318;2022-10-31T10:34:47;32;31;
64138;PMS5003;50435;43.700;-79.318;2022-10-31T10:37:22;29;26;
64138;PMS5003;50435;43.700;-79.318;2022-10-31T10:39:56;38;33;
64138;PMS5003;50435;43.700;-79.318;2022-10-31T10:42:33;30;30;
64138;PMS5003;50435;43.700;-79.318;2022-10-31T10:45:06;33;28;
64138;PMS5003;50435;43.700;-79.318;2022-10-31T10:47:42;31;28;
64138;PMS5003;50435;43.700;-79.318;2022-10-31T10:50:13;26;26;
64138;PMS5003;50435;43.700;-79.318;2022-10-31T10:52:48;36;32;
64138;PMS5003;50435;43.700;-79.318;2022-10-31T10:55:25;31;28;
64138;PMS5003;50435;43.700;-79.318;2022-10-31T10:58:03;29;28;
64138;PMS5003;50435;43.700;-79.318;2022-10-31T11:00:35;27;26;
64138;PMS5003;50435;43.700;-79.318;2022-10-31T11:03:05;29;29;
64138;PMS5003;50435;43.700;-79.318;2022-10-31T11:05:35;37;35;
64138;PMS5003;50435;43.700;-79.318;2022-10-31T11:08:05;28;26;
64138;PMS5003;50435;43.700;-79.318;2022-10-31T11:10:33;28;24;
64138;PMS5003;50435;43.700;-79.318;2022-10-31T11:13:03;26;26;
64138;PMS5003;50435;43.700;-79.318;2022-10-31T11:15:50;28;28;
64138;PMS5003;50435;43.700;-79.318;2022-10-31T11:18:20;27;27;
64138;PMS5003;50435;43.700;-79.318;2022-10-31T11:20:52;26;25;
64138;PMS5003;50435;43.700;-79.318;2022-10-31T11:23:20;26;25;
64138;PMS5003;50435;43.700;-79.318;2022-10-31T11:25:50;27;25;
64138;PMS5003;50435;43.700;-79.318;2022-10-31T11:28:21;36;30;
64138;PMS5003;50435;43.700;-79.318;2022-10-31T11:30:49;24;22;
64138;PMS5003;50435;43.700;-79.318;2022-10-31T11:33:20;25;25;
64138;PMS5003;50435;43.700;-79.318;2022-10-31T11:35:53;28;26;
64138;PMS5003;50435;43.700;-79.318;2022-10-31T11:38:22;32;26;
64138;PMS5003;50435;43.700;-79.318;2022-10-31T11:40:55;30;29;
64138;PMS5003;50435;43.700;-79.318;2022-10-31T11:43:25;28;24;
64138;PMS5003;50435;43.700;-79.318;2022-10-31T11:45:53;26;24;
64138;PMS5003;50435;43.700;-79.318;2022-10-31T11:48:21;26;24;
64138;PMS5003;50435;43.700;-79.318;2022-10-31T11:50:51;22;19;
64138;PMS5003;50435;43.700;-79.318;2022-10-31T11:53:24;28;23;
64138;PMS5003;50435;43.700;-79.318;2022-10-31T11:56:03;25;25;
64138;PMS5003;50435;43.700;-79.318;2022-10-31T11:58:37;22;22;
64138;PMS5003;50435;43.700;-79.318;2022-10-31T12:01:04;26;22;
64138;PMS5003;50435;43.700;-79.318;2022-10-31T12:03:38;33;29;
64138;PMS5003;50435;43.700;-79.318;2022-10-31T12:06:16;25;25;
64138;PMS5003;50435;43.700;-79.318;2022-10-31T12:08:49;23;21;
64138;PMS5003;50435;43.700;-79.318;2022-10-31T12:11:21;24;23;
64138;PMS5003;50435;43.700;-79.318;2022-10-31T12:14:05;26;25;
64138;PMS5003;50435;43.700;-79.318;2022-10-31T12:16:46;29;24;
64138;PMS5003;50435;43.700;-79.318;2022-10-31T12:19:21;26;20;
64138;PMS5003;50435;43.700;-79.318;2022-10-31T12:22:05;23;21;
64138;PMS5003;50435;43.700;-79.318;2022-10-31T12:24:42;22;22;
64138;PMS5003;50435;43.700;-79.318;2022-10-31T12:27:20;20;20;
64138;PMS5003;50435;43.700;-79.318;2022-10-31T12:30:06;23;22;
64138;PMS5003;50435;43.700;-79.318;2022-10-31T12:32:47;22;22;
64138;PMS5003;50435;43.700;-79.318;2022-10-31T12:35:31;23;22;
64138;PMS5003;50435;43.700;-79.318;2022-10-31T12:38:10;21;21;
64138;PMS5003;50435;43.700;-79.318;2022-10-31T12:40:53;25;23;
64138;PMS5003;50435;43.700;-79.318;2022-10-31T12:43:35;21;20;
64138;PMS5003;50435;43.700;-79.318;2022-10-31T12:46:10;21;21;
64138;PMS5003;50435;43.700;-79.318;2022-10-31T12:48:50;25;21;
64138;PMS5003;50435;43.700;-79.318;2022-10-31T12:51:31;18;17;
64138;PMS5003;50435;43.700;-79.318;2022-10-31T12:54:12;24;22;
64138;PMS5003;50435;43.700;-79.318;2022-10-31T12:56:53;18;18;
64138;PMS5003;50435;43.700;-79.318;2022-10-31T12:59:31;21;21;
64138;PMS5003;50435;43.700;-79.318;2022-10-31T13:02:04;20;20;
64138;PMS5003;50435;43.700;-79.318;2022-10-31T13:04:42;20;19;
64138;PMS5003;50435;43.700;-79.318;2022-10-31T13:07:15;23;21;
64138;PMS5003;50435;43.700;-79.318;2022-10-31T13:09:50;22;19;
64138;PMS5003;50435;43.700;-79.318;2022-10-31T13:12:23;23;20;
64138;PMS5003;50435;43.700;-79.318;2022-10-31T13:14:55;27;23;
64138;PMS5003;50435;43.700;-79.318;2022-10-31T13:17:27;21;20;
64138;PMS5003;50435;43.700;-79.318;2022-10-31T13:20:02;25;21;
64138;PMS5003;50435;43.700;-79.318;2022-10-31T13:22:41;25;22;
64138;PMS5003;50435;43.700;-79.318;2022-10-31T13:25:14;19;19;
64138;PMS5003;50435;43.700;-79.318;2022-10-31T13:27:47;24;23;
64138;PMS5003;50435;43.700;-79.318;2022-10-31T13:30:18;24;22;
64138;PMS5003;50435;43.700;-79.318;2022-10-31T13:32:49;19;18;
64138;PMS5003;50435;43.700;-79.318;2022-10-31T13:35:21;27;24;
64138;PMS5003;50435;43.700;-79.318;2022-10-31T13:37:57;25;20;
64138;PMS5003;50435;43.700;-79.318;2022-10-31T13:40:37;21;20;
64138;PMS5003;50435;43.700;-79.318;2022-10-31T13:43:11;21;20;
64138;PMS5003;50435;43.700;-79.318;2022-10-31T13:45:49;28;26;
64138;PMS5003;50435;43.700;-79.318;2022-10-31T13:48:20;24;21;
64138;PMS5003;50435;43.700;-79.318;2022-10-31T13:51:02;21;21;
64138;PMS5003;50435;43.700;-79.318;2022-10-31T13:53:39;20;20;
64138;PMS5003;50435;43.700;-79.318;2022-10-31T13:56:13;25;24;
64138;PMS5003;50435;43.700;-79.318;2022-10-31T13:58:55;25;22;
64138;PMS5003;50435;43.700;-79.318;2022-10-31T14:01:27;32;30;
64138;PMS5003;50435;43.700;-79.318;2022-10-31T14:03:56;30;30;
64138;PMS5003;50435;43.700;-79.318;2022-10-31T14:06:36;32;29;
64138;PMS5003;50435;43.700;-79.318;2022-10-31T14:09:15;31;29;
64138;PMS5003;50435;43.700;-79.318;2022-10-31T14:11:48;30;29;
64138;PMS5003;50435;43.700;-79.318;2022-10-31T14:14:17;37;30;
64138;PMS5003;50435;43.700;-79.318;2022-10-31T14:16:52;33;33;
64138;PMS5003;50435;43.700;-79.318;2022-10-31T14:19:22;37;35;
64138;PMS5003;50435;43.700;-79.318;2022-10-31T14:21:50;35;32;
64138;PMS5003;50435;43.700;-79.318;2022-10-31T14:24:30;31;29;
64138;PMS5003;50435;43.700;-79.318;2022-10-31T14:27:01;40;34;
64138;PMS5003;50435;43.700;-79.318;2022-10-31T14:29:30;33;31;
64138;PMS5003;50435;43.700;-79.318;2022-10-31T14:32:04;29;28;
64138;PMS5003;50435;43.700;-79.318;2022-10-31T14:34:51;31;28;
64138;PMS5003;50435;43.700;-79.318;2022-10-31T14:37:27;31;31;
64138;PMS5003;50435;43.700;-79.318;2022-10-31T14:40:18;37;29;
64138;PMS5003;50435;43.700;-79.318;2022-10-31T14:42:59;34;31;
64138;PMS5003;50435;43.700;-79.318;2022-10-31T14:45:43;30;29;
64138;PMS5003;50435;43.700;-79.318;2022-10-31T14:48:22;31;29;
64138;PMS5003;50435;43.700;-79.318;2022-10-31T14:51:01;27;25;
64138;PMS5003;50435;43.700;-79.318;2022-10-31T14:53:30;33;31;
64138;PMS5003;50435;43.700;-79.318;2022-10-31T14:56:01;30;29;
64138;PMS5003;50435;43.700;-79.318;2022-10-31T14:58:32;29;27;
64138;PMS5003;50435;43.700;-79.318;2022-10-31T15:01:04;28;27;
64138;PMS5003;50435;43.700;-79.318;2022-10-31T15:03:33;27;26;
64138;PMS5003;50435;43.700;-79.318;2022-10-31T15:06:04;26;23;
64138;PMS5003;50435;43.700;-79.318;2022-10-31T15:08:39;29;28;
64138;PMS5003;50435;43.700;-79.318;2022-10-31T15:11:12;27;24;
64138;PMS5003;50435;43.700;-79.318;2022-10-31T15:13:42;28;23;
64138;PMS5003;50435;43.700;-79.318;2022-10-31T15:16:14;25;24;
64138;PMS5003;50435;43.700;-79.318;2022-10-31T15:18:47;28;25;
64138;PMS5003;50435;43.700;-79.318;2022-10-31T15:21:17;24;24;
64138;PMS5003;50435;43.700;-79.318;2022-10-31T15:23:48;26;25;
64138;PMS5003;50435;43.700;-79.318;2022-10-31T15:26:19;26;25;
64138;PMS5003;50435;43.700;-79.318;2022-10-31T15:28:57;28;24;
64138;PMS5003;50435;43.700;-79.318;2022-10-31T15:31:25;25;20;
64138;PMS5003;50435;43.700;-79.318;2022-10-31T15:33:53;21;21;
64138;PMS5003;50435;43.700;-79.318;2022-10-31T15:36:22;28;25;
64138;PMS5003;50435;43.700;-79.318;2022-10-31T15:38:51;25;23;
64138;PMS5003;50435;43.700;-79.318;2022-10-31T15:41:23;28;26;
64138;PMS5003;50435;43.700;-79.318;2022-10-31T15:43:56;27;26;
64138;PMS5003;50435;43.700;-79.318;2022-10-31T15:46:29;23;21;
64138;PMS5003;50435;43.700;-79.318;2022-10-31T15:48:57;26;25;
64138;PMS5003;50435;43.700;-79.318;2022-10-31T15:51:25;25;24;
64138;PMS5003;50435;43.700;-79.318;2022-10-31T15:53:54;23;22;
64138;PMS5003;50435;43.700;-79.318;2022-10-31T15:56:23;24;22;
64138;PMS5003;50435;43.700;-79.318;2022-10-31T15:58:53;23;23;
64138;PMS5003;50435;43.700;-79.318;2022-10-31T16:01:23;24;23;
64138;PMS5003;50435;43.700;-79.318;2022-10-31T16:04:01;27;25;
64138;PMS5003;50435;43.700;-79.318;2022-10-31T16:06:32;25;22;
64138;PMS5003;50435;43.700;-79.318;2022-10-31T16:09:01;23;21;
64138;PMS5003;50435;43.700;-79.318;2022-10-31T16:11:32;22;19;
64138;PMS5003;50435;43.700;-79.318;2022-10-31T16:14:03;26;25;